Station: Edithburgh  

  Atmospheric Gas Attenuation - ITU Rec 676-11   ----------------- dB/100km -----------------
Date Time Temp RH % AH g/m3 Dew Point Wind Direction Speed kph Gust kph Barometer mB Rainfall Since 9am 24GHz 47GHz 76GHz 122GHz 134GHz 241GHz
06/05 11:00 16.7 89 12.65 14.9 26 35 1023.4 0.4 28.1 32.3 55.7 146.8 151.1 523.1
06/05 10:50 16.2 92 12.69 14.9 24 32 1023.5 0.4 28.2 32.5 56.3 148.3 152.7 528.6
06/05 09:10 17 78 11.29 13.1 20 26 1023.1 0 25.1 29.7 49.6 130.4 131.1 453.2
06/05 09:00 16.7 79 11.23 13 20 26 1023.2 0 25.0 29.7 49.5 130.3 130.8 452.0
06/05 08:50 16.3 81 11.24 13 20 22 1023.2 0 25.1 29.9 49.8 131.1 131.6 454.9
06/05 08:40 15.9 84 11.38 13.3 15 19 1023.2 0 25.4 30.3 50.7 133.4 134.3 464.2
06/05 08:30 15.5 86 11.37 13.2 13 17 1023.2 0 25.4 30.4 50.9 133.9 134.9 466.1
06/05 08:20 14.7 89 11.21 12.9 13 13 1023 0 25.1 30.4 50.7 133.4 134.0 462.8
06/05 08:10 14 89 10.74 12.2 15 17 1023.1 0 24.1 29.8 49.1 129.1 128.4 443.4
06/05 08:00 13.9 89 10.67 12.1 13 17 1023.2 0 24.0 29.7 48.9 128.5 127.6 440.6
06/05 07:50 13.8 89 10.6 12.1 15 17 1023 0 23.9 29.6 48.6 127.8 126.8 437.6
06/05 07:40 13.6 89 10.47 11.8 13 15 1022.9 0 23.6 29.5 48.2 126.7 125.2 432.2
06/05 07:30 13.7 89 10.54 11.9 15 20 1022.9 0 23.7 29.6 48.4 127.3 126.1 435.1
06/05 07:20 13.5 90 10.53 11.9 17 19 1022.8 0 23.7 29.6 48.5 127.5 126.2 435.7
06/05 07:10 13.3 90 10.4 11.7 15 17 1022.7 0 23.5 29.4 48.0 126.3 124.7 430.3
06/05 07:00 13.3 90 10.4 11.7 13 19 1022.7 0 23.5 29.4 48.0 126.3 124.7 430.3
06/05 06:50 13.2 90 10.33 11.6 15 17 1022.6 0 23.3 29.4 47.8 125.7 123.9 427.3
06/05 06:40 13 90 10.21 11.4 15 17 1022.7 0 23.1 29.2 47.4 124.6 122.5 422.5
06/05 06:30 12.9 91 10.26 11.5 13 19 1022.7 0 23.2 29.3 47.7 125.3 123.4 425.5
06/05 06:20 12.9 92 10.37 11.6 11 13 1022.6 0 23.4 29.5 48.2 126.6 124.9 431.0
06/05 06:10 12.6 93 10.29 11.5 11 13 1022.5 0 23.3 29.5 48.0 126.2 124.3 428.6
06/05 06:00 12.5 93 10.23 11.4 11 13 1022.5 0 23.1 29.4 47.8 125.6 123.6 426.2
06/05 05:50 12.2 92 9.93 10.9 9 9 1022.5 0 22.5 29.0 46.7 122.6 119.7 412.8
06/05 05:40 12.4 92 10.05 11.1 9 11 1022.6 0 22.8 29.1 47.1 123.7 121.2 417.8
06/05 05:30 12.7 92 10.24 11.4 11 13 1022.5 0 23.2 29.4 47.7 125.4 123.4 425.6
06/05 05:20 12.7 93 10.35 11.6 7 9 1022.6 0 23.4 29.6 48.2 126.7 125.0 431.1
06/05 05:10 12.7 93 10.35 11.6 9 11 1022.6 0 23.4 29.6 48.2 126.7 125.0 431.1
06/05 05:00 12.6 93 10.29 11.5 9 11 1022.6 0 23.3 29.5 48.0 126.2 124.3 428.7
06/05 04:50 12.5 93 10.23 11.4 11 11 1022.5 0 23.1 29.4 47.8 125.6 123.6 426.2
06/05 04:40 12.2 93 10.04 11.1 11 11 1022.5 0 22.7 29.2 47.1 123.9 121.3 418.3
06/05 04:30 12 93 9.91 10.9 11 13 1022.5 0 22.5 29.0 46.7 122.7 119.8 412.9
06/05 04:20 11.5 92 9.5 10.2 11 11 1022.5 0 21.6 28.5 45.2 118.7 114.7 395.1
06/05 04:10 11.6 90 9.36 10.1 11 11 1022.5 0 21.3 28.2 44.6 117.0 112.6 387.7
06/05 04:00 11.9 91 9.64 10.5 13 15 1022.5 0 21.9 28.6 45.6 119.7 116.1 400.0
06/05 03:50 12.2 92 9.93 10.9 11 13 1022.6 0 22.5 29.0 46.7 122.6 119.8 412.9
06/05 03:40 11.8 90 9.47 10.3 9 11 1022.6 0 21.5 28.3 44.9 118.0 113.8 392.1
06/05 03:30 12 90 9.59 10.4 9 11 1022.6 0 21.8 28.5 45.3 119.0 115.2 397.0
06/05 03:20 12.3 90 9.77 10.7 7 7 1022.6 0 22.2 28.7 45.9 120.6 117.3 404.4
06/05 03:10 12.4 89 9.73 10.6 6 7 1022.6 0 22.1 28.6 45.7 120.0 116.6 401.9
06/05 03:00 12.6 89 9.85 10.8 7 9 1022.7 0 22.3 28.7 46.1 121.1 118.0 406.8
06/05 02:50 13.1 89 10.16 11.3 7 7 1022.9 0 23.0 29.1 47.1 123.9 121.6 419.5
06/05 02:40 13.4 88 10.23 11.4 9 9 1022.9 0 23.1 29.1 47.3 124.2 122.1 421.4
06/05 02:30 13.5 88 10.29 11.6 7 9 1023 0 23.2 29.2 47.5 124.8 122.8 423.8
06/05 02:20 13.7 86 10.18 11.5 9 11 1023.1 0 23.0 28.9 46.9 123.2 121.0 417.3
06/05 02:10 13.9 88 10.55 11.9 15 17 1023.2 0 23.7 29.5 48.4 127.1 125.9 434.6
06/05 02:00 13.9 88 10.55 11.9 9 15 1023.3 0 23.7 29.5 48.4 127.1 125.9 434.6
06/05 01:50 14.1 86 10.44 11.9 7 9 1023.3 0 23.5 29.3 47.8 125.5 124.0 428.0
06/05 01:40 14 88 10.61 12 9 11 1023.4 0 23.9 29.6 48.6 127.7 126.6 437.1
06/05 01:30 14 88 10.61 12 9 13 1023.4 0 23.9 29.6 48.6 127.7 126.6 437.1
06/05 01:20 14 88 10.61 12 9 9 1023.4 0 23.9 29.6 48.6 127.7 126.6 437.1
06/05 01:10 14 88 10.61 12 7 7 1023.5 0 23.9 29.6 48.6 127.7 126.6 437.1
06/05 01:00 13.9 88 10.55 11.9 4 6 1023.4 0 23.7 29.5 48.4 127.2 125.9 434.6
06/05 00:50 14 88 10.61 12 4 4 1023.4 0 23.9 29.6 48.6 127.7 126.6 437.1
06/05 00:40 14.1 86 10.44 11.9 4 4 1023.5 0 23.5 29.3 47.8 125.6 124.0 428.1
06/05 00:30 14.1 87 10.56 12 4 6 1023.5 0 23.8 29.5 48.3 126.9 125.7 434.1
06/05 00:20 14.1 86 10.44 11.9 6 6 1023.5 0 23.5 29.3 47.8 125.6 124.0 428.1
06/05 00:10 14.1 88 10.68 12.1 6 6 1023.6 0 24.0 29.7 48.8 128.3 127.5 440.0
06/05 00:00 14.1 88 10.68 12.1 4 6 1023.6 0 24.0 29.7 48.8 128.3 127.5 440.0
05/05 23:50 14.1 88 10.68 12.1 6 6 1023.7 0 24.0 29.7 48.8 128.4 127.5 440.1
05/05 23:40 14.1 88 10.68 12.1 9 9 1023.7 0 24.0 29.7 48.8 128.4 127.5 440.1
05/05 23:30 14.1 88 10.68 12.1 9 13 1023.7 0 24.0 29.7 48.8 128.4 127.5 440.1
05/05 23:20 14 88 10.61 12 7 9 1023.8 0 23.9 29.6 48.6 127.7 126.7 437.2
05/05 23:10 14 88 10.61 12 7 7 1024 0 23.9 29.6 48.6 127.8 126.7 437.3
05/05 23:00 14 89 10.74 12.2 7 9 1024.1 0 24.1 29.9 49.2 129.3 128.5 443.8
05/05 22:50 13.8 89 10.6 12 7 9 1024.2 0 23.9 29.7 48.7 128.0 126.9 438.0
05/05 22:40 13.8 88 10.49 11.8 7 7 1024.3 0 23.6 29.5 48.2 126.7 125.3 432.5
05/05 22:30 13.7 88 10.42 11.8 4 6 1024.3 0 23.5 29.4 48.0 126.1 124.5 429.6
05/05 22:20 13.8 88 10.49 11.8 6 6 1024.4 0 23.6 29.5 48.2 126.7 125.3 432.6
05/05 22:10 13.8 88 10.49 11.8 7 7 1024.4 0 23.6 29.5 48.2 126.7 125.3 432.6
05/05 22:00 13.9 88 10.55 11.9 6 7 1024.4 0 23.7 29.6 48.4 127.3 126.0 435.0
05/05 21:50 13.9 88 10.55 11.9 7 7 1024.5 0 23.7 29.6 48.4 127.3 126.0 435.0
05/05 21:40 13.9 86 10.31 11.7 6 6 1024.5 0 23.2 29.2 47.4 124.5 122.6 423.1
05/05 21:30 13.9 87 10.43 11.8 6 7 1024.4 0 23.5 29.4 47.9 125.9 124.3 429.0
05/05 21:20 14.1 86 10.44 11.8 6 6 1024.5 0 23.5 29.3 47.8 125.7 124.1 428.4
05/05 21:10 14.2 86 10.5 11.9 6 6 1024.4 0 23.6 29.4 48.0 126.2 124.8 430.8
05/05 21:00 14.3 85 10.44 11.8 4 6 1024.4 0 23.5 29.2 47.7 125.4 123.8 427.3
05/05 20:50 14.4 85 10.51 11.9 4 4 1024.5 0 23.6 29.3 47.9 126.0 124.6 430.2
05/05 20:40 14.4 85 10.51 11.9 2 2 1024.5 0 23.6 29.3 47.9 126.0 124.6 430.2
05/05 20:30 14.3 85 10.44 11.8 2 4 1024.5 0 23.5 29.3 47.7 125.4 123.8 427.3
05/05 20:20 14.4 85 10.51 11.9 6 6 1024.5 0 23.6 29.3 47.9 126.0 124.6 430.2
05/05 20:10 14.2 84 10.26 11.5 6 6 1024.6 0 23.1 29.0 47.0 123.5 121.5 419.1
05/05 20:00 14.2 84 10.26 11.5 4 6 1024.5 0 23.1 29.0 47.0 123.5 121.4 419.0
05/05 19:50 14.2 84 10.26 11.5 6 7 1024.4 0 23.1 29.0 47.0 123.5 121.4 419.0
05/05 19:40 14.2 84 10.26 11.5 6 6 1024.5 0 23.1 29.0 47.0 123.5 121.4 419.0
05/05 19:30 14.1 84 10.19 11.4 6 7 1024.5 0 23.0 28.9 46.7 122.8 120.6 416.1
05/05 19:20 14.1 83 10.07 11.2 7 7 1024.5 0 22.7 28.7 46.2 121.5 118.9 410.3
05/05 19:10 14 83 10.01 11.1 7 7 1024.4 0 22.6 28.6 46.0 120.9 118.3 407.8
05/05 19:00 13.9 83 9.95 11.1 7 7 1024.4 0 22.5 28.5 45.8 120.4 117.6 405.4
05/05 18:50 13.9 81 9.71 10.8 7 7 1024.3 0 21.9 28.1 44.8 117.7 114.2 393.8
05/05 18:40 13.9 81 9.71 10.8 7 7 1024.2 0 21.9 28.1 44.8 117.7 114.2 393.7
05/05 18:30 13.9 81 9.71 10.7 6 7 1024.1 0 21.9 28.1 44.8 117.7 114.2 393.7
05/05 18:20 14.1 78 9.47 10.3 2 2 1023.9 0 21.4 27.6 43.7 114.7 110.6 381.1
05/05 18:10 13.8 77 9.17 9.8 4 4 1023.8 0 20.8 27.2 42.6 111.8 106.9 368.2
05/05 18:00 13.9 75 8.99 9.5 4 6 1023.7 0 20.4 26.9 41.8 109.6 104.3 359.2
05/05 17:50 14.1 73 8.86 9.3 4 4 1023.6 0 20.1 26.6 41.2 107.9 102.3 352.2
05/05 17:40 14.4 73 9.02 9.6 4 4 1023.6 0 20.4 26.8 41.7 109.3 104.1 358.3
05/05 17:30 14.5 73 9.08 9.7 6 9 1023.5 0 20.6 26.9 41.8 109.8 104.7 360.6
05/05 17:20 15 71 9.1 9.8 7 7 1023.5 0 20.6 26.7 41.7 109.3 104.3 359.3
05/05 17:10 15.7 69 9.23 10 6 6 1023.4 0 20.8 26.7 41.8 109.7 105.1 362.1
05/05 17:00 16.1 67 9.18 10 7 11 1023.4 0 20.7 26.5 41.4 108.6 103.9 357.9

Last Refresh: 06-May-2026 11:04:23

Bureau of Meteorology